Time;durP1;ratioP1;P1;durP2;ratioP2;P2;SDS_P1;SDS_P2;PMS_P1;PMS_P2;Temp;Humidity;BMP_temperature;BMP_pressure;BME280_temperature;BME280_humidity;BME280_pressure;Samples;Min_cycle;Max_cycle;Signal;HPM_P1;HPM_P2
2022/03/19 00:01:50;;;;;;;;;10.00;8.00;;;;;8.96;43.46;103391.63;5110979;27;50536;-68
2022/03/19 00:04:16;;;;;;;;;8.25;6.75;;;;;8.93;43.29;103391.44;5111603;27;50025;-68
2022/03/19 00:06:45;;;;;;;;;6.50;5.75;;;;;8.89;42.75;103387.69;5111633;27;49705;-68
2022/03/19 00:09:10;;;;;;;;;5.00;5.00;;;;;8.88;42.59;103400.69;5111856;27;49669;-68
2022/03/19 00:11:35;;;;;;;;;4.50;4.25;;;;;8.85;41.77;103397.84;5111168;27;50514;-68
2022/03/19 00:14:01;;;;;;;;;8.50;5.50;;;;;8.86;41.91;103397.03;5111513;27;49914;-67
2022/03/19 00:16:26;;;;;;;;;7.00;4.25;;;;;8.69;42.33;103372.31;5111302;27;49812;-68
2022/03/19 00:18:52;;;;;;;;;7.00;6.00;;;;;8.39;41.59;103312.53;5111573;27;49773;-68
2022/03/19 00:21:18;;;;;;;;;4.25;4.25;;;;;8.69;41.68;103377.56;5111152;27;50796;-68
2022/03/19 00:23:43;;;;;;;;;5.25;5.25;;;;;8.85;41.58;103405.69;5111560;27;50311;-69
2022/03/19 00:26:09;;;;;;;;;4.25;4.25;;;;;8.75;41.58;103382.28;5111299;27;49805;-69
2022/03/19 00:28:36;;;;;;;;;5.00;3.75;;;;;8.83;41.82;103402.06;5110453;27;50407;-68
2022/03/19 00:31:01;;;;;;;;;5.00;5.00;;;;;8.81;40.98;103401.97;5109572;27;52554;-69
2022/03/19 00:33:27;;;;;;;;;7.25;6.00;;;;;8.80;41.50;103404.50;5111481;27;49726;-68
2022/03/19 00:35:52;;;;;;;;;2.75;2.75;;;;;8.75;41.90;103393.66;5111149;27;49653;-68
2022/03/19 00:38:17;;;;;;;;;3.00;3.00;;;;;8.75;41.63;103396.28;5111588;27;49767;-68
2022/03/19 00:40:43;;;;;;;;;5.25;5.00;;;;;8.53;41.41;103349.38;5111029;27;50031;-68
2022/03/19 00:43:09;;;;;;;;;2.50;2.00;;;;;8.71;40.50;103388.13;5111694;27;50000;-68
2022/03/19 00:45:35;;;;;;;;;7.00;5.00;;;;;8.57;41.28;103361.88;5111488;27;50018;-68
2022/03/19 00:48:01;;;;;;;;;2.00;2.00;;;;;8.67;40.75;103379.13;5111823;27;49952;-68
2022/03/19 00:50:26;;;;;;;;;4.50;2.25;;;;;8.75;40.65;103403.25;5111302;27;50396;-68
2022/03/19 00:52:51;;;;;;;;;5.00;5.00;;;;;8.72;41.26;103390.84;5110987;27;49745;-70
2022/03/19 00:55:17;;;;;;;;;3.50;2.25;;;;;8.69;41.39;103397.59;5111096;27;49801;-68
2022/03/19 00:57:45;;;;;;;;;4.75;2.25;;;;;8.69;40.56;103395.88;5111490;27;50118;-70
2022/03/19 01:00:14;;;;;;;;;2.25;1.25;;;;;8.64;40.68;103392.00;5110907;27;50227;-70
2022/03/19 01:02:44;;;;;;;;;4.50;4.50;;;;;8.44;40.97;103353.97;5109780;27;49847;-70
2022/03/19 01:05:11;;;;;;;;;1.25;1.25;;;;;8.67;40.89;103396.56;5111395;27;49696;-69
2022/03/19 01:07:44;;;;;;;;;5.00;2.25;;;;;8.66;40.64;103387.78;5111373;27;49721;-69
2022/03/19 01:10:12;;;;;;;;;1.50;1.50;;;;;8.63;40.75;103389.28;5110667;27;50368;-70
2022/03/19 01:12:37;;;;;;;;;2.50;2.00;;;;;8.59;40.14;103389.09;5110875;27;49958;-67
2022/03/19 01:15:03;;;;;;;;;2.75;2.00;;;;;8.53;40.23;103372.94;5110895;27;49874;-69
2022/03/19 01:17:29;;;;;;;;;1.00;1.00;;;;;8.58;40.51;103378.47;5111142;27;49892;-68
2022/03/19 01:19:54;;;;;;;;;5.00;5.00;;;;;8.27;40.46;103331.78;5110998;27;49699;-69
2022/03/19 01:22:21;;;;;;;;;2.25;2.25;;;;;8.39;40.23;103360.56;5110980;27;49734;-68
2022/03/19 01:24:47;;;;;;;;;5.00;3.00;;;;;8.52;40.80;103378.06;5110948;27;49869;-69
2022/03/19 01:27:13;;;;;;;;;3.00;2.00;;;;;8.26;39.99;103340.44;5110724;27;49877;-69
2022/03/19 01:29:38;;;;;;;;;2.50;2.50;;;;;8.44;40.77;103377.50;5110555;27;49878;-68
2022/03/19 01:32:04;;;;;;;;;1.50;1.50;;;;;8.42;40.83;103371.28;5110629;27;49947;-70
2022/03/19 01:34:30;;;;;;;;;3.75;3.00;;;;;8.37;40.88;103375.25;5110818;27;49834;-68
2022/03/19 01:36:55;;;;;;;;;2.00;2.00;;;;;8.37;41.06;103372.63;5111050;27;49793;-70
2022/03/19 01:39:21;;;;;;;;;4.50;3.00;;;;;8.33;40.47;103367.97;5110725;27;49731;-68
2022/03/19 01:41:46;;;;;;;;;4.50;3.00;;;;;8.32;41.15;103366.16;5110145;27;50591;-69
2022/03/19 01:44:22;;;;;;;;;2.25;2.00;;;;;8.19;41.04;103348.63;5110775;27;49627;-69
2022/03/19 01:47:03;;;;;;;;;2.00;2.00;;;;;8.01;41.19;103332.56;5110752;27;49820;-69
2022/03/19 01:49:30;;;;;;;;;1.75;1.75;;;;;8.20;40.86;103353.09;5113418;27;52720;-68
2022/03/19 01:51:56;;;;;;;;;2.50;2.50;;;;;8.22;41.17;103361.06;5113841;27;49670;-69
2022/03/19 01:54:28;;;;;;;;;2.00;2.00;;;;;8.16;40.97;103344.91;5114138;27;49896;-69
2022/03/19 01:56:56;;;;;;;;;5.00;3.00;;;;;8.18;41.17;103351.16;5114040;27;49973;-68
2022/03/19 01:59:23;;;;;;;;;5.50;2.00;;;;;8.18;41.09;103356.38;5114019;27;49874;-69
2022/03/19 02:01:50;;;;;;;;;1.00;1.00;;;;;8.18;41.07;103356.38;5113918;27;49956;-69
2022/03/19 02:04:16;;;;;;;;;2.25;2.25;;;;;8.00;41.17;103317.63;5113975;27;49741;-69
2022/03/19 02:06:44;;;;;;;;;4.00;4.00;;;;;7.95;41.03;103311.19;5113826;27;49744;-70
2022/03/19 02:09:10;;;;;;;;;6.75;2.75;;;;;8.14;41.61;103347.41;5113589;27;50827;-68
2022/03/19 02:11:36;;;;;;;;;3.00;3.00;;;;;8.13;41.05;103349.94;5113598;27;49826;-69
2022/03/19 02:14:01;;;;;;;;;4.50;4.50;;;;;7.98;41.26;103324.47;5113950;27;49887;-67
2022/03/19 02:16:27;;;;;;;;;1.50;1.50;;;;;8.12;41.44;103338.56;5114117;27;49835;-67
2022/03/19 02:18:52;;;;;;;;;3.00;3.00;;;;;7.68;41.25;103268.25;5113524;27;50607;-68
2022/03/19 02:21:18;;;;;;;;;3.50;2.75;;;;;8.07;41.31;103334.69;5113494;27;50054;-68
2022/03/19 02:26:27;;;;;;;;;4.00;4.00;;;;;7.98;40.95;103307.88;5113269;27;49796;-69
2022/03/19 02:28:52;;;;;;;;;3.25;3.25;;;;;8.06;41.68;103329.34;5113241;27;50290;-70
2022/03/19 02:31:19;;;;;;;;;3.00;3.00;;;;;8.04;40.84;103319.69;5113534;27;49926;-70
2022/03/19 02:33:44;;;;;;;;;4.00;4.00;;;;;7.81;42.08;103280.50;5113455;27;49780;-69
2022/03/19 02:36:09;;;;;;;;;5.50;5.00;;;;;8.00;41.87;103319.34;5113811;27;50122;-69
2022/03/19 02:38:35;;;;;;;;;5.00;3.00;;;;;7.90;41.71;103301.16;5113129;27;49759;-69
2022/03/19 02:41:04;;;;;;;;;0.75;0.75;;;;;8.02;41.91;103316.06;5112989;27;49735;-69
2022/03/19 02:43:29;;;;;;;;;5.00;4.00;;;;;7.81;41.85;103288.34;5113512;27;50259;-69
2022/03/19 02:45:55;;;;;;;;;6.00;5.00;;;;;7.91;41.93;103301.31;5113343;27;49864;-69
2022/03/19 02:48:20;;;;;;;;;5.25;5.25;;;;;7.94;41.98;103309.38;5112901;27;49902;-68
2022/03/19 02:50:45;;;;;;;;;7.25;6.00;;;;;7.95;42.44;103313.78;5113104;27;50090;-69
2022/03/19 02:53:11;;;;;;;;;10.00;3.00;;;;;7.95;41.99;103318.13;5113161;27;49919;-68
2022/03/19 02:55:41;;;;;;;;;5.75;4.50;;;;;7.92;42.00;103304.84;5113258;27;49980;-67
2022/03/19 02:58:08;;;;;;;;;6.00;6.00;;;;;7.87;42.36;103300.97;5112809;27;49806;-68
2022/03/19 03:00:35;;;;;;;;;10.00;5.25;;;;;7.70;42.41;103282.34;5112925;27;50086;-67
2022/03/19 03:03:01;;;;;;;;;5.50;4.50;;;;;7.74;42.42;103286.09;5112801;27;50043;-67
2022/03/19 03:05:26;;;;;;;;;7.75;5.75;;;;;7.65;43.24;103273.28;5113061;27;49813;-67
2022/03/19 03:07:51;;;;;;;;;4.00;2.25;;;;;7.83;42.89;103305.06;5111617;27;49757;-67
2022/03/19 03:10:19;;;;;;;;;4.75;3.50;;;;;7.71;42.95;103280.63;5112661;27;49797;-68
2022/03/19 03:12:44;;;;;;;;;6.00;5.00;;;;;7.78;43.41;103305.53;5112937;27;49840;-68
2022/03/19 03:15:09;;;;;;;;;5.75;5.50;;;;;7.72;43.14;103293.84;5113114;27;49955;-67
2022/03/19 03:17:35;;;;;;;;;5.25;5.00;;;;;7.68;43.30;103285.66;5112481;27;49648;-68
2022/03/19 03:20:02;;;;;;;;;7.75;7.50;;;;;7.73;43.86;103297.38;5112560;27;49756;-68
2022/03/19 03:22:29;;;;;;;;;6.25;5.00;;;;;7.65;43.35;103281.13;5112472;27;49722;-68
2022/03/19 03:24:55;;;;;;;;;7.25;6.00;;;;;7.72;43.69;103295.50;5112743;27;49728;-68
2022/03/19 03:27:21;;;;;;;;;5.00;5.00;;;;;7.41;43.11;103248.84;5112537;27;50894;-68
2022/03/19 03:29:46;;;;;;;;;3.00;3.00;;;;;7.50;43.75;103266.91;5112454;27;49711;-68
2022/03/19 03:32:11;;;;;;;;;10.75;10.50;;;;;7.47;43.83;103265.00;5112620;27;49815;-67
2022/03/19 03:34:38;;;;;;;;;11.50;10.00;;;;;7.68;43.87;103298.72;5112595;27;49625;-69
2022/03/19 03:37:04;;;;;;;;;8.50;8.50;;;;;7.63;43.46;103287.94;5112129;27;49839;-70
2022/03/19 03:39:29;;;;;;;;;10.25;9.00;;;;;7.64;44.13;103278.38;5112443;27;49865;-70
2022/03/19 03:41:54;;;;;;;;;9.00;9.00;;;;;7.62;44.60;103299.16;5112238;27;49676;-70
2022/03/19 03:44:19;;;;;;;;;10.00;6.00;;;;;7.62;45.26;103277.34;5112432;27;50015;-69
2022/03/19 03:46:45;;;;;;;;;6.00;6.00;;;;;7.15;44.52;103207.78;5112196;27;50268;-72
2022/03/19 03:49:10;;;;;;;;;7.25;7.25;;;;;7.35;44.89;103240.59;5112188;27;49548;-69
2022/03/19 03:51:37;;;;;;;;;8.25;8.25;;;;;7.51;45.50;103271.34;5112116;27;49871;-69
2022/03/19 03:54:05;;;;;;;;;12.75;10.00;;;;;7.43;45.13;103251.56;5112167;27;49713;-69
2022/03/19 03:56:31;;;;;;;;;10.50;10.00;;;;;7.52;45.28;103273.16;5111798;27;50174;-69
2022/03/19 03:58:56;;;;;;;;;10.00;8.25;;;;;7.36;45.71;103241.50;5112079;27;49896;-70
2022/03/19 04:01:22;;;;;;;;;15.75;14.25;;;;;7.49;45.51;103267.72;5111981;27;50428;-70
2022/03/19 04:03:47;;;;;;;;;12.00;9.25;;;;;7.23;46.26;103221.38;5112321;27;49660;-70
2022/03/19 04:06:13;;;;;;;;;10.00;10.00;;;;;7.46;45.70;103257.94;5110544;27;51770;-69
2022/03/19 04:08:38;;;;;;;;;11.00;11.00;;;;;7.45;45.95;103256.13;5111981;27;49957;-68
2022/03/19 04:11:04;;;;;;;;;13.25;11.75;;;;;7.25;45.84;103239.78;5111133;27;49832;-68
2022/03/19 04:13:29;;;;;;;;;12.25;10.75;;;;;7.44;46.34;103269.09;5105181;27;49786;-68
2022/03/19 04:15:54;;;;;;;;;12.00;12.00;;;;;7.03;46.09;103213.78;5111604;27;50267;-68
2022/03/19 04:18:20;;;;;;;;;12.75;10.25;;;;;7.33;46.13;103251.69;5111728;27;49697;-67
2022/03/19 04:20:45;;;;;;;;;12.00;10.00;;;;;7.41;46.43;103271.47;5110326;27;50207;-68
2022/03/19 04:23:11;;;;;;;;;15.00;15.00;;;;;7.15;46.42;103230.38;5112078;27;49762;-67
2022/03/19 04:25:36;;;;;;;;;18.25;14.75;;;;;7.37;47.13;103272.03;5111221;27;50218;-68
2022/03/19 04:28:01;;;;;;;;;20.00;19.00;;;;;7.31;47.44;103256.81;5111474;27;49637;-68
2022/03/19 04:30:28;;;;;;;;;20.00;18.25;;;;;7.21;47.79;103250.78;5111554;27;49736;-67
2022/03/19 04:32:59;;;;;;;;;14.50;13.75;;;;;7.35;47.31;103271.94;5111730;27;49730;-67
2022/03/19 04:38:15;;;;;;;;;19.00;15.00;;;;;7.32;47.50;103282.13;5104979;27;49907;-68
2022/03/19 04:40:42;;;;;;;;;20.25;19.00;;;;;7.17;47.91;103254.91;5111200;27;49653;-68
2022/03/19 04:43:08;;;;;;;;;16.50;16.50;;;;;7.28;48.24;103280.09;5111693;27;49881;-68
2022/03/19 04:45:35;;;;;;;;;16.25;13.00;;;;;7.26;48.39;103272.97;5111405;27;49760;-68
2022/03/19 04:48:01;;;;;;;;;28.75;22.50;;;;;7.22;48.57;103271.81;5111086;27;49698;-67
2022/03/19 04:50:26;;;;;;;;;23.25;20.00;;;;;7.10;49.10;103253.53;5127093;27;49843;-68
2022/03/19 04:52:53;;;;;;;;;14.00;12.75;;;;;7.15;48.65;103278.31;5111442;27;49795;-68
2022/03/19 04:55:19;;;;;;;;;20.75;19.00;;;;;7.14;49.13;103272.94;5110859;27;49629;-66
2022/03/19 04:57:48;;;;;;;;;13.75;12.50;;;;;7.00;48.82;103234.44;5111374;27;50129;-68
2022/03/19 05:00:16;;;;;;;;;20.50;18.75;;;;;7.07;49.36;103258.53;5111517;27;49980;-68
2022/03/19 05:02:42;;;;;;;;;25.25;20.75;;;;;6.90;49.59;103232.84;5111376;27;49638;-65
2022/03/19 05:05:08;;;;;;;;;21.25;19.50;;;;;7.02;49.73;103258.97;5110882;27;49677;-69
2022/03/19 05:07:35;;;;;;;;;23.75;20.00;;;;;6.56;50.04;103185.00;5110892;27;49799;-69
2022/03/19 05:12:47;;;;;;;;;32.25;26.25;;;;;6.96;49.82;103258.53;5110948;27;49705;-66
2022/03/19 05:15:15;;;;;;;;;22.25;20.75;;;;;6.83;49.99;103251.44;5110937;27;50298;-65
2022/03/19 05:17:41;;;;;;;;;28.75;23.50;;;;;6.69;50.61;103223.41;5111046;27;49763;-67
2022/03/19 05:20:10;;;;;;;;;20.25;18.00;;;;;6.85;50.45;103265.53;5110964;27;49674;-67
2022/03/19 05:22:35;;;;;;;;;20.75;18.50;;;;;6.83;50.99;103261.91;5104353;27;50274;-67
2022/03/19 05:25:02;;;;;;;;;23.25;23.00;;;;;6.75;50.85;103263.91;5114212;27;50879;-67
2022/03/19 05:27:27;;;;;;;;;28.75;26.00;;;;;6.74;51.05;103259.50;5113999;27;49906;-67
2022/03/19 05:29:53;;;;;;;;;23.75;19.25;;;;;6.52;50.97;103235.16;5112967;27;49944;-68
2022/03/19 05:32:20;;;;;;;;;22.00;20.50;;;;;6.72;51.70;103258.47;5114791;27;49602;-67
2022/03/19 05:34:46;;;;;;;;;22.50;21.50;;;;;6.70;51.60;103267.00;5114148;27;49898;-66
2022/03/19 05:37:12;;;;;;;;;16.00;15.00;;;;;6.67;51.79;103280.72;5114497;27;49751;-66
2022/03/19 05:39:38;;;;;;;;;29.00;23.00;;;;;6.63;52.16;103268.22;5114381;27;49610;-66
2022/03/19 05:42:05;;;;;;;;;19.00;16.00;;;;;6.56;52.11;103258.09;5114044;27;49660;-69
2022/03/19 05:44:31;;;;;;;;;23.50;19.00;;;;;6.50;52.42;103262.84;5113927;27;49796;-68
2022/03/19 05:47:00;;;;;;;;;18.75;18.00;;;;;6.58;52.53;103274.78;5114103;27;50197;-66
2022/03/19 05:49:26;;;;;;;;;26.00;24.25;;;;;6.51;52.17;103255.13;5112374;27;49762;-67
2022/03/19 05:51:52;;;;;;;;;25.25;22.75;;;;;6.33;52.63;103240.66;5114098;27;49978;-67
2022/03/19 05:54:18;;;;;;;;;27.25;22.75;;;;;6.53;52.64;103266.59;5114019;27;49710;-66
2022/03/19 05:56:44;;;;;;;;;30.50;30.00;;;;;6.51;52.49;103272.50;5113787;27;49829;-66
2022/03/19 05:59:09;;;;;;;;;21.00;18.25;;;;;6.49;52.94;103261.03;5113953;27;49629;-67
2022/03/19 06:01:35;;;;;;;;;24.00;19.00;;;;;6.46;53.72;103266.00;5113848;27;49902;-66
2022/03/19 06:04:00;;;;;;;;;23.50;21.50;;;;;6.01;53.50;103194.75;5113670;27;49732;-67
2022/03/19 06:06:27;;;;;;;;;24.25;24.25;;;;;6.45;53.59;103269.41;5113768;27;49811;-67
2022/03/19 06:08:52;;;;;;;;;22.00;19.25;;;;;6.21;54.18;103224.06;5114154;27;50003;-67
2022/03/19 06:11:18;;;;;;;;;35.50;28.00;;;;;6.48;54.08;103267.06;5114003;27;49742;-67
2022/03/19 06:13:43;;;;;;;;;30.50;26.50;;;;;6.08;53.91;103195.22;5113716;27;49704;-67
2022/03/19 06:16:09;;;;;;;;;18.75;16.00;;;;;6.47;53.96;103270.47;5113762;27;49783;-67
2022/03/19 06:18:34;;;;;;;;;31.00;27.50;;;;;6.30;54.79;103241.34;5113639;27;49879;-69
2022/03/19 06:21:00;;;;;;;;;34.75;26.75;;;;;6.47;54.82;103267.84;5112354;27;49841;-67
2022/03/19 06:23:25;;;;;;;;;31.00;27.75;;;;;6.50;54.73;103271.59;5113375;27;49972;-69
2022/03/19 06:25:52;;;;;;;;;40.50;32.00;;;;;6.52;54.89;103271.69;5118474;27;49822;-70
2022/03/19 06:28:18;;;;;;;;;33.25;31.75;;;;;6.55;54.81;103275.44;5115327;27;49736;-70
2022/03/19 06:30:43;;;;;;;;;46.25;34.00;;;;;6.50;55.27;103260.25;5113599;27;49961;-69
2022/03/19 06:33:09;;;;;;;;;40.00;32.25;;;;;6.47;54.97;103258.31;5113050;27;49752;-70
2022/03/19 06:38:22;;;;;;;;;35.25;29.75;;;;;6.58;55.31;103270.47;5113657;27;50183;-69
2022/03/19 06:40:47;;;;;;;;;43.50;35.25;;;;;6.53;55.58;103257.84;5113372;27;49940;-68
2022/03/19 06:43:12;;;;;;;;;23.00;22.75;;;;;6.63;55.21;103275.13;5112593;27;54754;-69
2022/03/19 06:45:38;;;;;;;;;31.00;24.25;;;;;6.63;55.99;103264.69;5113297;27;49696;-69
2022/03/19 06:48:05;;;;;;;;;43.25;37.75;;;;;6.71;55.79;103276.63;5113483;27;49848;-67
2022/03/19 06:50:30;;;;;;;;;52.75;44.00;;;;;6.72;56.11;103268.91;5106611;27;50079;-68
2022/03/19 06:52:56;;;;;;;;;52.75;39.00;;;;;6.74;56.16;103261.19;5112941;27;49927;-68
2022/03/19 06:55:21;;;;;;;;;41.75;37.00;;;;;6.65;55.97;103239.59;5112991;27;50027;-66
2022/03/19 06:57:47;;;;;;;;;50.75;40.50;;;;;6.68;56.45;103239.88;5112817;27;49940;-65
2022/03/19 07:00:12;;;;;;;;;54.75;47.25;;;;;6.86;56.15;103270.88;5113111;27;49542;-67
2022/03/19 07:02:54;;;;;;;;;54.75;43.50;;;;;6.92;55.75;103266.91;5112656;27;50156;-67
2022/03/19 07:05:25;;;;;;;;;42.00;38.50;;;;;6.72;56.04;103218.41;5106496;27;50035;-76
2022/03/19 07:07:51;;;;;;;;;46.75;40.75;;;;;7.01;56.24;103263.28;5106709;27;49888;-64
2022/03/19 07:10:18;;;;;;;;;54.25;44.25;;;;;7.01;56.15;103246.69;5113079;27;49749;-65
2022/03/19 07:12:45;;;;;;;;;36.50;31.00;;;;;6.95;55.72;103233.19;5105727;27;49914;-65
2022/03/19 07:15:12;;;;;;;;;52.00;42.00;;;;;7.07;56.21;103241.94;5106048;27;49854;-66
2022/03/19 07:17:38;;;;;;;;;47.75;41.50;;;;;7.11;56.19;103249.22;5105930;27;50044;-67
2022/03/19 07:20:04;;;;;;;;;55.50;44.25;;;;;7.23;56.28;103249.19;5112860;27;49766;-66
2022/03/19 07:22:52;;;;;;;;;57.50;43.75;;;;;7.12;55.86;103228.41;5112475;27;49846;-68
2022/03/19 07:25:19;;;;;;;;;55.25;44.75;;;;;7.35;55.30;103255.34;5114107;27;49950;-67
2022/03/19 07:27:45;;;;;;;;;65.00;45.50;;;;;7.47;55.23;103271.94;5118016;27;49900;-65
2022/03/19 07:30:11;;;;;;;;;51.50;44.00;;;;;7.36;55.25;103242.41;5112518;27;49989;-64
2022/03/19 07:32:37;;;;;;;;;36.50;31.00;;;;;7.39;55.30;103240.00;5112116;27;51619;-72
2022/03/19 07:35:03;;;;;;;;;58.00;47.50;;;;;7.58;55.29;103270.09;5112418;27;49750;-65
2022/03/19 07:37:28;;;;;;;;;46.50;38.25;;;;;7.62;55.10;103272.13;5112288;27;49915;-64
2022/03/19 07:39:56;;;;;;;;;60.25;46.25;;;;;7.61;55.53;103252.00;5112579;27;49770;-64
2022/03/19 07:42:21;;;;;;;;;59.75;46.25;;;;;7.71;55.42;103270.16;5111992;27;50655;-63
2022/03/19 07:44:47;;;;;;;;;60.50;46.25;;;;;7.80;55.24;103262.09;5112216;27;50027;-65
2022/03/19 07:47:12;;;;;;;;;40.25;34.25;;;;;7.66;55.18;103232.34;5111515;27;49816;-67
2022/03/19 07:49:39;;;;;;;;;57.00;45.75;;;;;7.84;55.06;103270.28;5112136;27;49705;-64
2022/03/19 07:52:05;;;;;;;;;60.00;48.00;;;;;7.84;54.75;103251.06;5111725;27;49673;-64
2022/03/19 07:54:32;;;;;;;;;59.75;48.25;;;;;7.92;54.68;103261.28;5113017;27;49954;-62
2022/03/19 07:56:57;;;;;;;;;58.00;45.50;;;;;7.98;54.93;103255.56;5110554;27;49666;-64
2022/03/19 07:59:23;;;;;;;;;58.25;48.00;;;;;7.86;55.21;103218.97;5113799;27;49617;-65
2022/03/19 08:01:49;;;;;;;;;55.50;43.50;;;;;8.09;55.31;103264.16;5111364;27;50798;-66
2022/03/19 08:04:15;;;;;;;;;65.25;50.75;;;;;8.11;54.82;103266.09;5110202;27;49709;-65
2022/03/19 08:06:40;;;;;;;;;59.50;48.00;;;;;7.58;54.19;103153.38;5111658;27;49697;-64
2022/03/19 08:09:08;;;;;;;;;62.25;50.00;;;;;8.13;54.13;103234.81;5112004;27;49651;-64
2022/03/19 08:11:34;;;;;;;;;59.50;44.25;;;;;8.10;54.48;103237.19;5111167;27;49876;-68
2022/03/19 08:14:00;;;;;;;;;58.00;46.75;;;;;7.47;54.62;103136.94;5110506;27;50179;-64
2022/03/19 08:16:26;;;;;;;;;59.50;47.00;;;;;7.54;54.27;103104.28;5111865;27;49822;-68
2022/03/19 08:18:51;;;;;;;;;59.25;45.75;;;;;8.30;54.62;103240.41;5110495;27;49909;-66
2022/03/19 08:21:16;;;;;;;;;57.00;48.00;;;;;8.11;54.48;103219.00;5111333;27;50690;-69
2022/03/19 08:23:42;;;;;;;;;43.75;40.75;;;;;8.56;54.40;103249.19;5111579;27;49925;-71
2022/03/19 08:26:07;;;;;;;;;66.75;51.75;;;;;8.53;54.32;103235.88;5111343;27;50008;-67
2022/03/19 08:28:32;;;;;;;;;63.75;50.00;;;;;8.60;54.23;103239.03;5111668;27;49647;-70
2022/03/19 08:30:58;;;;;;;;;57.75;49.50;;;;;8.65;53.88;103246.28;5111436;27;49564;-73
2022/03/19 08:33:25;;;;;;;;;44.50;35.50;;;;;8.75;53.46;103238.25;5111499;27;49783;-72
2022/03/19 08:35:50;;;;;;;;;69.75;52.00;;;;;8.85;53.69;103231.09;5111429;27;49776;-73
2022/03/19 08:41:00;;;;;;;;;65.50;53.25;;;;;9.02;53.12;103221.75;5110874;27;50112;-69
2022/03/19 08:43:25;;;;;;;;;61.75;47.50;;;;;8.97;53.38;103202.19;5109885;27;49845;-64
2022/03/19 08:45:51;;;;;;;;;58.25;47.50;;;;;8.71;52.47;103153.34;5111102;27;49536;-69
2022/03/19 08:48:18;;;;;;;;;62.00;49.00;;;;;9.06;52.87;103217.63;5111339;27;49782;-66
2022/03/19 08:50:45;;;;;;;;;60.75;48.25;;;;;7.89;52.81;103002.13;5110689;27;49859;-65
2022/03/19 08:53:10;;;;;;;;;58.75;43.25;;;;;8.95;52.28;103172.38;5111456;27;49771;-64
2022/03/19 08:55:36;;;;;;;;;49.50;38.25;;;;;9.31;53.04;103228.91;5111511;27;49785;-64
2022/03/19 08:58:03;;;;;;;;;63.50;51.75;;;;;8.57;51.60;103067.72;5113766;27;49754;-64
2022/03/19 09:00:28;;;;;;;;;55.25;44.25;;;;;8.97;52.00;103143.66;5114623;27;50711;-66
2022/03/19 09:02:55;;;;;;;;;68.00;53.75;;;;;8.71;51.55;103084.34;5114420;27;49759;-67
2022/03/19 09:05:22;;;;;;;;;52.00;39.50;;;;;9.48;51.59;103209.03;5114767;27;49740;-70
2022/03/19 09:07:47;;;;;;;;;67.50;53.25;;;;;9.59;52.76;103217.59;5114820;27;49907;-64
2022/03/19 09:10:12;;;;;;;;;71.50;53.50;;;;;8.93;51.65;103133.78;5114449;27;50577;-72
2022/03/19 09:12:40;;;;;;;;;63.50;48.00;;;;;9.62;51.46;103221.28;5112821;27;49762;-71
2022/03/19 09:15:08;;;;;;;;;62.75;49.00;;;;;9.35;51.64;103153.97;5113186;27;49918;-70
2022/03/19 09:17:33;;;;;;;;;68.00;54.50;;;;;9.74;51.08;103211.56;5108272;27;49691;-65
2022/03/19 09:19:59;;;;;;;;;65.25;52.50;;;;;9.72;51.12;103192.22;5107522;27;50396;-65
2022/03/19 09:22:24;;;;;;;;;64.25;50.25;;;;;9.08;50.36;103075.44;5114061;27;49930;-71
2022/03/19 09:24:50;;;;;;;;;66.25;53.00;;;;;9.95;51.24;103208.50;5112772;27;49660;-66
2022/03/19 09:27:15;;;;;;;;;61.50;47.75;;;;;10.09;50.76;103230.34;5114656;27;49993;-71
2022/03/19 09:29:42;;;;;;;;;62.50;49.50;;;;;10.18;50.69;103210.81;5113850;27;50223;-73
2022/03/19 09:32:09;;;;;;;;;66.50;53.25;;;;;10.31;50.91;103199.38;5114435;27;49933;-69
2022/03/19 09:34:35;;;;;;;;;66.50;52.25;;;;;9.85;49.89;103119.53;5114423;27;50437;-71
2022/03/19 09:37:01;;;;;;;;;66.50;52.00;;;;;10.29;49.46;103194.03;5114445;27;49737;-67
2022/03/19 09:39:26;;;;;;;;;60.00;49.75;;;;;10.39;50.41;103208.63;5113863;27;50821;-69
2022/03/19 09:41:53;;;;;;;;;64.00;48.25;;;;;10.45;50.00;103202.84;5113717;27;49599;-66
2022/03/19 09:44:23;;;;;;;;;71.50;56.50;;;;;10.55;49.84;103205.22;5114056;27;49826;-70
2022/03/19 09:46:48;;;;;;;;;61.50;47.25;;;;;10.61;49.09;103210.81;5114040;27;49905;-70
2022/03/19 09:49:14;;;;;;;;;70.75;52.25;;;;;10.56;48.64;103181.66;5113714;27;50399;-72
2022/03/19 09:51:44;;;;;;;;;63.00;53.00;;;;;10.77;48.80;103192.53;5113810;27;49779;-68
2022/03/19 09:54:11;;;;;;;;;62.25;50.50;;;;;10.85;48.10;103183.38;5113970;27;49663;-68
2022/03/19 09:56:36;;;;;;;;;68.00;50.25;;;;;10.51;47.82;103122.69;5113779;27;49849;-68
2022/03/19 09:59:03;;;;;;;;;30.50;26.25;;;;;11.07;47.70;103181.97;5113545;27;49862;-68
2022/03/19 10:01:31;;;;;;;;;64.25;52.00;;;;;11.04;46.11;103152.88;5113582;27;49687;-68
2022/03/19 10:04:01;;;;;;;;;66.75;51.25;;;;;11.11;46.03;103161.22;5114042;27;49674;-68
2022/03/19 10:09:21;;;;;;;;;71.50;53.50;;;;;11.13;46.08;103130.66;5112786;27;49707;-68
2022/03/19 10:11:51;;;;;;;;;64.75;50.00;;;;;11.49;44.82;103159.81;5107008;27;49643;-68
2022/03/19 10:14:22;;;;;;;;;57.25;44.75;;;;;11.59;45.03;103156.88;5113507;27;49741;-68
2022/03/19 10:16:51;;;;;;;;;68.75;52.25;;;;;11.72;44.84;103163.69;5120140;27;49592;-68
2022/03/19 10:19:17;;;;;;;;;62.25;50.25;;;;;11.10;44.20;103071.75;5113265;27;49859;-72
2022/03/19 10:21:44;;;;;;;;;65.25;50.50;;;;;11.67;43.73;103146.75;5118352;27;49664;-72
2022/03/19 10:24:25;;;;;;;;;61.25;49.50;;;;;11.43;43.28;103097.25;5114217;27;49797;-68
2022/03/19 10:26:51;;;;;;;;;65.25;50.25;;;;;11.79;43.59;103136.00;5114489;27;49830;-69
2022/03/19 10:29:27;;;;;;;;;56.75;42.25;;;;;11.73;43.41;103124.31;5113206;27;50474;-69
2022/03/19 10:32:03;;;;;;;;;52.75;41.00;;;;;11.90;42.60;103135.78;5113898;27;49680;-66
2022/03/19 10:34:29;;;;;;;;;61.00;50.25;;;;;11.99;42.71;103132.72;5113249;27;49938;-67
2022/03/19 10:36:54;;;;;;;;;56.00;45.25;;;;;11.97;42.20;103132.66;5113458;27;50045;-66
2022/03/19 10:39:22;;;;;;;;;54.00;40.75;;;;;12.19;41.72;103128.50;5112947;27;52746;-66
2022/03/19 10:41:51;;;;;;;;;46.75;38.75;;;;;11.94;40.96;103118.41;5112888;27;49756;-66
2022/03/19 10:44:19;;;;;;;;;60.75;47.75;;;;;12.25;41.13;103134.97;5113407;27;49839;-66
2022/03/19 10:46:53;;;;;;;;;55.50;42.50;;;;;12.37;40.55;103131.19;5115949;27;49786;-67
2022/03/19 10:49:21;;;;;;;;;64.50;49.75;;;;;12.22;39.74;103078.63;5123826;27;49789;-69
2022/03/19 10:51:49;;;;;;;;;59.50;43.50;;;;;12.51;40.03;103123.13;5112710;27;49794;-65
2022/03/19 10:54:16;;;;;;;;;57.75;45.75;;;;;12.36;39.88;103085.50;5114437;27;49830;-76
2022/03/19 10:56:43;;;;;;;;;60.25;49.25;;;;;12.62;40.63;103113.13;5115948;27;49824;-64
2022/03/19 10:59:09;;;;;;;;;60.50;49.75;;;;;12.70;39.74;103124.06;5113103;27;51052;-63
2022/03/19 11:01:36;;;;;;;;;50.75;41.50;;;;;12.70;39.20;103121.41;5113367;27;49888;-65
2022/03/19 11:04:03;;;;;;;;;59.50;45.00;;;;;12.74;39.10;103113.75;5118612;27;49568;-68
2022/03/19 11:06:34;;;;;;;;;61.00;48.75;;;;;12.87;38.40;103110.88;5112858;27;50042;-66
2022/03/19 11:09:06;;;;;;;;;51.00;39.75;;;;;12.90;38.31;103092.56;5115259;27;50890;-68
2022/03/19 11:11:35;;;;;;;;;59.75;44.75;;;;;12.78;37.72;103063.00;5112360;27;49690;-65
2022/03/19 11:14:02;;;;;;;;;55.75;45.00;;;;;12.86;38.78;103069.53;5112812;27;49727;-65
2022/03/19 11:16:35;;;;;;;;;56.75;45.75;;;;;12.70;38.46;103016.00;5112731;27;49715;-65
2022/03/19 11:19:02;;;;;;;;;54.50;44.00;;;;;13.12;37.49;103089.25;5113183;27;51152;-64
2022/03/19 11:21:30;;;;;;;;;57.50;47.00;;;;;12.92;38.10;103031.09;5111936;27;49709;-66
2022/03/19 11:24:09;;;;;;;;;57.50;45.25;;;;;13.17;38.04;103047.25;5115755;27;49871;-69
2022/03/19 11:26:36;;;;;;;;;22.50;11.00;;;;;12.91;37.39;103003.84;5115135;27;49770;-69
2022/03/19 11:29:02;;;;;;;;;60.25;44.75;;;;;13.14;37.35;103026.03;5105220;27;50453;-74
2022/03/19 11:31:29;;;;;;;;;56.25;44.50;;;;;13.50;37.44;103068.13;5117761;27;49827;-73
2022/03/19 11:34:01;;;;;;;;;53.50;43.00;;;;;12.85;36.87;102945.56;5116585;27;49921;-80
2022/03/19 11:36:27;;;;;;;;;44.75;38.50;;;;;12.87;36.52;102930.72;5104655;27;50165;-72